createdAt,value
2017-12-14T00:00:04.828Z,985.64
2017-12-14T00:02:04.863Z,985.45
2017-12-14T00:03:04.876Z,985.45
2017-12-14T00:04:04.885Z,985.47
2017-12-14T00:05:04.901Z,985.49
2017-12-14T00:06:04.926Z,985.52
2017-12-14T00:07:04.929Z,985.46
2017-12-14T00:08:04.954Z,985.48
2017-12-14T00:09:04.969Z,985.48
2017-12-14T00:10:04.982Z,985.43
2017-12-14T00:11:04.992Z,985.35
2017-12-14T00:12:05.004Z,985.23
2017-12-14T00:13:05.014Z,985.2
2017-12-14T00:14:05.029Z,985.03
2017-12-14T00:15:05.055Z,984.95
2017-12-14T00:16:05.070Z,984.91
2017-12-14T00:17:05.078Z,984.97
2017-12-14T00:18:05.087Z,985.05
2017-12-14T00:19:05.102Z,985.04
2017-12-14T00:20:05.122Z,984.97
2017-12-14T00:21:05.134Z,984.85
2017-12-14T00:22:05.144Z,984.88
2017-12-14T00:23:05.170Z,984.8
2017-12-14T00:24:05.178Z,984.75
2017-12-14T00:25:05.192Z,984.69
2017-12-14T00:26:05.211Z,984.62
2017-12-14T00:27:05.225Z,984.54
2017-12-14T00:28:05.234Z,984.55
2017-12-14T00:29:05.246Z,984.48
2017-12-14T00:30:05.272Z,984.51
2017-12-14T00:31:05.279Z,984.46
2017-12-14T00:32:05.300Z,984.44
2017-12-14T00:34:05.333Z,984.41
2017-12-14T00:35:05.336Z,984.36
2017-12-14T00:36:05.348Z,984.37
2017-12-14T00:37:05.373Z,984.36
2017-12-14T00:38:05.380Z,984.35
2017-12-14T00:39:05.396Z,984.32
2017-12-14T00:40:05.410Z,984.32
2017-12-14T00:41:05.419Z,984.34
2017-12-14T00:42:05.438Z,984.25
2017-12-14T00:43:05.491Z,984.2
2017-12-14T00:44:05.469Z,984.21
2017-12-14T00:45:05.483Z,984.11
2017-12-14T00:46:05.498Z,984.1
2017-12-14T00:47:05.511Z,984.07
2017-12-14T00:48:05.534Z,983.96
2017-12-14T00:50:05.556Z,983.95
2017-12-14T00:51:05.576Z,983.88
2017-12-14T00:52:05.579Z,983.85
2017-12-14T00:53:05.594Z,983.9
2017-12-14T00:54:05.612Z,983.81
2017-12-14T00:55:05.629Z,983.8
2017-12-14T00:56:05.649Z,983.75
2017-12-14T00:57:05.660Z,983.75
2017-12-14T00:58:05.671Z,983.7
2017-12-14T00:59:05.686Z,983.66
2017-12-14T01:00:05.703Z,983.65
2017-12-14T01:01:05.720Z,983.59
2017-12-14T01:02:05.728Z,983.57
2017-12-14T01:03:05.751Z,983.57
2017-12-14T01:04:05.761Z,983.56
2017-12-14T01:06:05.794Z,983.53
2017-12-14T01:07:05.810Z,983.47
2017-12-14T01:08:05.826Z,983.47
2017-12-14T01:09:05.832Z,983.47
2017-12-14T01:10:05.842Z,983.51
2017-12-14T01:11:05.856Z,983.49
2017-12-14T01:12:05.877Z,983.48
2017-12-14T01:13:05.896Z,983.44
2017-12-14T01:14:05.909Z,983.41
2017-12-14T01:15:05.921Z,983.35
2017-12-14T01:16:05.929Z,983.38
2017-12-14T01:17:05.948Z,983.36
2017-12-14T01:18:05.964Z,983.39
2017-12-14T01:19:05.984Z,983.34
2017-12-14T01:20:05.993Z,983.35
2017-12-14T01:22:06.020Z,983.36
2017-12-14T01:23:06.032Z,983.3
2017-12-14T01:24:06.049Z,983.23
2017-12-14T01:25:06.071Z,983.28
2017-12-14T01:26:06.085Z,983.26
2017-12-14T01:27:06.095Z,983.22
2017-12-14T01:28:06.114Z,983.26
2017-12-14T01:29:06.123Z,983.23
2017-12-14T01:30:06.138Z,983.21
2017-12-14T01:31:06.152Z,983.14
2017-12-14T01:32:06.169Z,983.2
2017-12-14T01:33:06.182Z,983.21
2017-12-14T01:34:06.194Z,983.18
2017-12-14T01:35:06.210Z,983.17
2017-12-14T01:37:06.235Z,983.19
2017-12-14T01:38:06.253Z,983.11
2017-12-14T01:39:06.276Z,983.1
2017-12-14T01:40:06.288Z,983.11
2017-12-14T01:41:06.300Z,983.11
2017-12-14T01:42:06.318Z,983.14
2017-12-14T01:43:06.328Z,983.18
2017-12-14T01:44:06.336Z,983.06
2017-12-14T01:45:06.357Z,983.11
2017-12-14T01:46:06.364Z,983.13
2017-12-14T01:47:06.384Z,983.01
2017-12-14T01:48:06.398Z,982.96
2017-12-14T01:49:06.419Z,983.1
2017-12-14T01:50:06.426Z,982.99
2017-12-14T01:51:06.437Z,983.04
2017-12-14T01:52:06.452Z,983.02
2017-12-14T01:53:06.472Z,982.98
2017-12-14T01:54:06.486Z,982.9
2017-12-14T01:55:06.493Z,982.89
2017-12-14T01:56:06.520Z,982.88
2017-12-14T01:57:06.535Z,982.96
2017-12-14T01:58:06.544Z,982.86
2017-12-14T01:59:06.561Z,982.86
2017-12-14T02:00:06.567Z,982.91
2017-12-14T02:01:06.584Z,982.91
2017-12-14T02:02:06.597Z,982.93
2017-12-14T02:03:06.617Z,982.88
2017-12-14T02:04:06.630Z,982.92
2017-12-14T02:05:06.642Z,982.85
2017-12-14T02:06:06.660Z,982.86
2017-12-14T02:07:06.667Z,982.88
2017-12-14T02:09:06.691Z,982.86
2017-12-14T02:10:06.710Z,982.77
2017-12-14T02:11:06.725Z,982.79
2017-12-14T02:12:06.743Z,982.78
2017-12-14T02:13:06.758Z,982.76
2017-12-14T02:14:06.770Z,982.74
2017-12-14T02:15:06.782Z,982.67
2017-12-14T02:16:06.795Z,982.7
2017-12-14T02:17:06.808Z,982.73
2017-12-14T02:18:06.821Z,982.72
2017-12-14T02:19:06.841Z,982.64
2017-12-14T02:20:06.849Z,982.64
2017-12-14T02:21:06.866Z,982.6
2017-12-14T02:22:06.879Z,982.68
2017-12-14T02:23:06.891Z,982.58
2017-12-14T02:25:06.926Z,982.56
2017-12-14T02:26:06.936Z,982.54
2017-12-14T02:27:06.943Z,982.56
2017-12-14T02:28:06.964Z,982.46
2017-12-14T02:29:06.982Z,982.44
2017-12-14T02:30:06.989Z,982.48
2017-12-14T02:31:07.001Z,982.48
2017-12-14T02:32:07.017Z,982.45
2017-12-14T02:33:07.032Z,982.41
2017-12-14T02:34:07.052Z,982.34
2017-12-14T02:35:07.059Z,982.32
2017-12-14T02:36:07.072Z,982.36
2017-12-14T02:37:07.088Z,982.31
2017-12-14T02:38:07.108Z,982.25
2017-12-14T02:39:07.119Z,982.25
2017-12-14T02:41:07.154Z,982.19
2017-12-14T02:42:07.156Z,982.19
2017-12-14T02:43:07.178Z,982.15
2017-12-14T02:44:07.185Z,982.14
2017-12-14T02:45:07.205Z,982.16
2017-12-14T02:46:07.219Z,982.16
2017-12-14T02:47:07.232Z,982.09
2017-12-14T02:48:07.252Z,982.03
2017-12-14T02:49:07.257Z,981.95
2017-12-14T02:50:07.264Z,981.93
2017-12-14T02:51:07.284Z,981.89
2017-12-14T02:52:07.292Z,981.89
2017-12-14T02:53:07.317Z,981.89
2017-12-14T02:54:07.327Z,981.9
2017-12-14T02:55:07.338Z,981.81
2017-12-14T02:57:07.372Z,981.93
2017-12-14T02:58:07.381Z,981.88
2017-12-14T02:59:07.400Z,981.93
2017-12-14T03:00:07.408Z,981.87
2017-12-14T03:01:07.418Z,981.77
2017-12-14T03:02:07.441Z,981.79
2017-12-14T03:03:07.449Z,981.81
2017-12-14T03:04:07.466Z,981.87
2017-12-14T03:05:07.477Z,981.89
2017-12-14T03:06:07.497Z,981.94
2017-12-14T03:07:07.506Z,981.93
2017-12-14T03:08:07.522Z,981.82
2017-12-14T03:09:07.533Z,981.84
2017-12-14T03:10:07.554Z,981.85
2017-12-14T03:12:07.571Z,981.78
2017-12-14T03:13:07.589Z,981.81
2017-12-14T03:14:07.599Z,981.92
2017-12-14T03:15:07.618Z,981.86
2017-12-14T03:16:07.633Z,981.73
2017-12-14T03:17:07.652Z,981.8
2017-12-14T03:18:07.667Z,981.8
2017-12-14T03:19:07.672Z,981.82
2017-12-14T03:20:07.694Z,981.8
2017-12-14T03:21:07.708Z,981.81
2017-12-14T03:22:07.716Z,981.75
2017-12-14T03:23:07.727Z,981.81
2017-12-14T03:24:07.747Z,981.72
2017-12-14T03:25:07.759Z,981.78
2017-12-14T03:26:07.780Z,981.78
2017-12-14T03:27:07.783Z,981.79
2017-12-14T03:28:07.798Z,981.56
2017-12-14T03:29:07.810Z,981.76
2017-12-14T03:30:07.841Z,981.73
2017-12-14T03:31:07.845Z,981.78
2017-12-14T03:32:07.860Z,981.83
2017-12-14T03:33:07.868Z,981.88
2017-12-14T03:34:07.888Z,981.86
2017-12-14T03:35:07.900Z,981.9
2017-12-14T03:36:07.921Z,981.87
2017-12-14T03:37:07.931Z,981.81
2017-12-14T03:38:07.947Z,981.84
2017-12-14T03:39:07.959Z,981.75
2017-12-14T03:40:07.973Z,981.78
2017-12-14T03:41:07.983Z,981.79
2017-12-14T03:42:08.004Z,981.72
2017-12-14T03:44:08.031Z,981.83
2017-12-14T03:45:08.047Z,981.8
2017-12-14T03:46:08.058Z,981.8
2017-12-14T03:47:08.075Z,981.88
2017-12-14T03:48:08.090Z,981.86
2017-12-14T03:49:08.104Z,981.84
2017-12-14T03:50:08.112Z,981.91
2017-12-14T03:51:08.131Z,981.88
2017-12-14T03:52:08.147Z,981.89
2017-12-14T03:53:08.165Z,981.88
2017-12-14T03:54:08.180Z,981.98
2017-12-14T03:55:08.194Z,981.84
2017-12-14T03:56:08.210Z,981.9
2017-12-14T03:57:08.219Z,981.96
2017-12-14T03:58:08.228Z,981.88
2017-12-14T04:00:08.257Z,981.92
2017-12-14T04:01:08.282Z,981.96
2017-12-14T04:02:08.296Z,982.12
2017-12-14T04:03:08.307Z,982.1
2017-12-14T04:04:08.314Z,982.09
2017-12-14T04:05:08.331Z,982.08
2017-12-14T04:06:08.345Z,982.1
2017-12-14T04:07:08.365Z,982.04
2017-12-14T04:08:08.378Z,982.02
2017-12-14T04:09:08.494Z,981.95
2017-12-14T04:10:08.415Z,982.06
2017-12-14T04:11:08.426Z,982.09
2017-12-14T04:12:08.434Z,982.11
2017-12-14T04:13:08.454Z,982.14
2017-12-14T04:14:08.478Z,982.11
2017-12-14T04:16:08.503Z,982.11
2017-12-14T04:17:08.518Z,982.17
2017-12-14T04:18:08.522Z,982.23
2017-12-14T04:19:08.543Z,982.16
2017-12-14T04:20:08.552Z,982.09
2017-12-14T04:21:08.575Z,982.13
2017-12-14T04:22:08.592Z,982.2
2017-12-14T04:23:08.600Z,982.2
2017-12-14T04:24:08.616Z,982.2
2017-12-14T04:25:08.633Z,982.1
2017-12-14T04:26:08.651Z,982.1
2017-12-14T04:27:08.667Z,982.15
2017-12-14T04:28:08.675Z,982.11
2017-12-14T04:29:08.697Z,982.17
2017-12-14T04:30:08.707Z,982.09
2017-12-14T04:32:08.738Z,982.09
2017-12-14T04:33:08.750Z,982
2017-12-14T04:34:08.768Z,982.11
2017-12-14T04:35:08.776Z,982.12
2017-12-14T04:36:08.795Z,982.16
2017-12-14T04:37:08.814Z,982.19
2017-12-14T04:38:08.827Z,982.21
2017-12-14T04:39:08.842Z,982.11
2017-12-14T04:40:08.858Z,982.18
2017-12-14T04:41:08.877Z,982.26
2017-12-14T04:42:08.885Z,982.21
2017-12-14T04:43:08.908Z,982.21
2017-12-14T04:44:08.922Z,982.2
2017-12-14T04:45:08.940Z,982.2
2017-12-14T04:47:08.967Z,982.25
2017-12-14T04:48:08.982Z,982.31
2017-12-14T04:49:08.993Z,982.19
2017-12-14T04:50:09.009Z,982.28
2017-12-14T04:51:09.021Z,982.2
2017-12-14T04:52:09.039Z,982.19
2017-12-14T04:53:09.048Z,982.25
2017-12-14T04:54:09.067Z,982.26
2017-12-14T04:55:09.082Z,982.34
2017-12-14T04:56:09.094Z,982.27
2017-12-14T04:57:09.114Z,982.27
2017-12-14T04:58:09.131Z,982.3
2017-12-14T04:59:09.146Z,982.27
2017-12-14T05:00:09.163Z,982.26
2017-12-14T05:01:09.169Z,982.28
2017-12-14T05:02:09.195Z,982.25
2017-12-14T05:03:09.206Z,982.25
2017-12-14T05:04:09.219Z,982.26
2017-12-14T05:05:09.240Z,982.36
2017-12-14T05:06:09.251Z,982.35
2017-12-14T05:07:09.261Z,982.37
2017-12-14T05:08:09.275Z,982.43
2017-12-14T05:09:09.300Z,982.36
2017-12-14T05:10:09.306Z,982.41
2017-12-14T05:11:09.322Z,982.36
2017-12-14T05:12:09.337Z,982.33
2017-12-14T05:13:09.356Z,982.36
2017-12-14T05:14:09.373Z,982.41
2017-12-14T05:15:09.382Z,982.37
2017-12-14T05:16:09.407Z,982.39
2017-12-14T05:17:09.419Z,982.4
2017-12-14T05:19:09.442Z,982.43
2017-12-14T05:20:09.469Z,982.37
2017-12-14T05:21:09.476Z,982.41
2017-12-14T05:22:09.493Z,982.38
2017-12-14T05:23:09.510Z,982.42
2017-12-14T05:24:09.520Z,982.36
2017-12-14T05:25:09.545Z,982.5
2017-12-14T05:26:09.555Z,982.49
2017-12-14T05:27:09.565Z,982.49
2017-12-14T05:28:09.580Z,982.51
2017-12-14T05:29:09.601Z,982.46
2017-12-14T05:30:09.614Z,982.47
2017-12-14T05:31:09.626Z,982.42
2017-12-14T05:32:09.647Z,982.48
2017-12-14T05:33:09.667Z,982.45
2017-12-14T05:35:09.689Z,982.45
2017-12-14T05:36:09.713Z,982.59
2017-12-14T05:37:09.723Z,982.47
2017-12-14T05:38:09.748Z,982.55
2017-12-14T05:39:09.754Z,982.6
2017-12-14T05:40:09.766Z,982.58
2017-12-14T05:41:09.780Z,982.65
2017-12-14T05:42:09.807Z,982.63
2017-12-14T05:43:09.815Z,982.68
2017-12-14T05:44:09.838Z,982.65
2017-12-14T05:45:09.872Z,982.64
2017-12-14T05:46:09.862Z,982.71
2017-12-14T05:47:09.874Z,982.75
2017-12-14T05:48:09.892Z,982.73
2017-12-14T05:49:09.915Z,982.71
2017-12-14T05:51:09.949Z,982.71
2017-12-14T05:52:09.956Z,982.79
2017-12-14T05:53:09.968Z,982.81
2017-12-14T05:54:09.987Z,982.8
2017-12-14T05:55:10.008Z,982.8
2017-12-14T05:56:10.024Z,982.82
2017-12-14T05:57:10.034Z,982.8
2017-12-14T05:58:10.044Z,982.92
2017-12-14T05:59:10.065Z,982.88
2017-12-14T06:00:10.080Z,982.93
2017-12-14T06:01:10.093Z,982.87
2017-12-14T06:02:10.110Z,982.92
2017-12-14T06:03:10.122Z,982.93
2017-12-14T06:04:10.136Z,982.83
2017-12-14T06:05:10.162Z,982.93
2017-12-14T06:07:10.193Z,982.92
2017-12-14T06:08:10.204Z,982.94
2017-12-14T06:09:10.224Z,983
2017-12-14T06:10:10.240Z,982.97
2017-12-14T06:11:10.258Z,982.98
2017-12-14T06:12:10.271Z,982.95
2017-12-14T06:13:10.281Z,982.98
2017-12-14T06:14:10.294Z,983.06
2017-12-14T06:15:10.313Z,983.03
2017-12-14T06:16:10.324Z,983.02
2017-12-14T06:17:10.339Z,983.04
2017-12-14T06:18:10.363Z,983.03
2017-12-14T06:19:10.370Z,983.04
2017-12-14T06:20:10.390Z,983.05
2017-12-14T06:22:10.422Z,983.09
2017-12-14T06:23:10.439Z,983.07
2017-12-14T06:24:10.448Z,983.02
2017-12-14T06:25:10.471Z,983.07
2017-12-14T06:26:10.486Z,983.09
2017-12-14T06:27:10.498Z,983.1
2017-12-14T06:28:10.520Z,983.1
2017-12-14T06:29:10.533Z,983.22
2017-12-14T06:30:10.545Z,983.14
2017-12-14T06:31:10.562Z,983.17
2017-12-14T06:32:10.577Z,983.16
2017-12-14T06:33:10.596Z,983.22
2017-12-14T06:34:10.609Z,983.19
2017-12-14T06:35:10.629Z,983.28
2017-12-14T06:36:10.635Z,983.23
2017-12-14T06:37:10.651Z,983.24
2017-12-14T06:38:10.667Z,983.37
2017-12-14T06:39:10.690Z,983.19
2017-12-14T06:40:10.702Z,983.11
2017-12-14T06:41:10.715Z,983.17
2017-12-14T06:42:10.731Z,983.23
2017-12-14T06:43:10.847Z,983.13
2017-12-14T06:44:10.761Z,983.19
2017-12-14T06:45:10.776Z,983.09
2017-12-14T06:46:10.794Z,983.12
2017-12-14T06:47:10.807Z,983.13
2017-12-14T06:48:10.821Z,983.21
2017-12-14T06:49:10.833Z,983.2
2017-12-14T06:50:10.855Z,983.17
2017-12-14T06:51:10.865Z,983.14
2017-12-14T06:52:10.885Z,983.18
2017-12-14T06:54:10.915Z,983.18
2017-12-14T06:55:10.934Z,983.06
2017-12-14T06:56:10.948Z,983.15
2017-12-14T06:57:10.956Z,983.18
2017-12-14T06:58:10.980Z,983.16
2017-12-14T06:59:10.993Z,983.23
2017-12-14T07:00:11.010Z,983.28
2017-12-14T07:01:11.023Z,983.31
2017-12-14T07:02:11.038Z,983.29
2017-12-14T07:03:11.059Z,983.23
2017-12-14T07:04:11.075Z,983.27
2017-12-14T07:05:11.092Z,983.23
2017-12-14T07:06:11.103Z,983.25
2017-12-14T07:07:11.120Z,983.24
2017-12-14T07:08:11.136Z,983.24
2017-12-14T07:10:11.158Z,983.25
2017-12-14T07:11:11.182Z,983.23
2017-12-14T07:12:11.192Z,983.26
2017-12-14T07:13:11.203Z,983.3
2017-12-14T07:14:11.227Z,983.24
2017-12-14T07:15:11.237Z,983.23
2017-12-14T07:16:11.249Z,983.28
2017-12-14T07:17:11.274Z,983.27
2017-12-14T07:18:11.284Z,983.24
2017-12-14T07:19:11.294Z,983.15
2017-12-14T07:20:11.309Z,983.21
2017-12-14T07:21:11.325Z,983.22
2017-12-14T07:22:11.350Z,983.2
2017-12-14T07:23:11.369Z,983.14
2017-12-14T07:24:11.370Z,983.19
2017-12-14T07:26:11.412Z,983.13
2017-12-14T07:27:11.417Z,983.22
2017-12-14T07:28:11.441Z,983.24
2017-12-14T07:29:11.458Z,983.28
2017-12-14T07:30:11.473Z,983.22
2017-12-14T07:31:11.488Z,983.21
2017-12-14T07:32:11.494Z,983.17
2017-12-14T07:33:11.518Z,983.14
2017-12-14T07:34:11.535Z,983.18
2017-12-14T07:35:11.550Z,983.16
2017-12-14T07:36:11.558Z,983.17
2017-12-14T07:37:11.570Z,983.16
2017-12-14T07:38:11.596Z,983.16
2017-12-14T07:39:11.608Z,983.19
2017-12-14T07:40:11.620Z,983.21
2017-12-14T07:42:11.654Z,983.29
2017-12-14T07:43:11.663Z,983.31
2017-12-14T07:44:11.683Z,983.3
2017-12-14T07:45:11.706Z,983.31
2017-12-14T07:46:11.709Z,983.31
2017-12-14T07:47:11.730Z,983.31
2017-12-14T07:48:11.745Z,983.3
2017-12-14T07:49:11.766Z,983.31
2017-12-14T07:50:11.771Z,983.32
2017-12-14T07:51:11.786Z,983.31
2017-12-14T07:52:11.804Z,983.28
2017-12-14T07:53:11.823Z,983.3
2017-12-14T07:54:11.832Z,983.34
2017-12-14T07:55:11.860Z,983.34
2017-12-14T07:57:11.879Z,983.42
2017-12-14T07:58:11.900Z,983.47
2017-12-14T07:59:11.921Z,983.44
2017-12-14T08:00:11.933Z,983.43
2017-12-14T08:01:11.947Z,983.4
2017-12-14T08:02:11.955Z,983.35
2017-12-14T08:03:11.976Z,983.35
2017-12-14T08:04:11.991Z,983.33
2017-12-14T08:05:12.007Z,983.26
2017-12-14T08:06:12.025Z,983.28
2017-12-14T08:07:12.039Z,983.28
2017-12-14T08:08:12.060Z,983.26
2017-12-14T08:09:12.069Z,983.25
2017-12-14T08:10:12.083Z,983.28
2017-12-14T08:11:12.103Z,983.28
2017-12-14T08:12:12.111Z,983.25
2017-12-14T08:13:12.136Z,983.23
2017-12-14T08:14:12.153Z,983.19
2017-12-14T08:15:12.168Z,983.18
2017-12-14T08:16:12.172Z,983.16
2017-12-14T08:17:12.196Z,983.24
2017-12-14T08:18:12.214Z,983.29
2017-12-14T08:19:12.231Z,983.28
2017-12-14T08:20:12.246Z,983.31
2017-12-14T08:21:12.251Z,983.31
2017-12-14T08:22:12.273Z,983.33
2017-12-14T08:23:12.289Z,983.39
2017-12-14T08:24:12.303Z,983.39
2017-12-14T08:25:12.324Z,983.37
2017-12-14T08:26:12.328Z,983.38
2017-12-14T08:27:12.354Z,983.38
2017-12-14T08:29:12.374Z,983.48
2017-12-14T08:30:12.401Z,983.48
2017-12-14T08:31:12.416Z,983.5
2017-12-14T08:32:12.422Z,983.51
2017-12-14T08:33:12.441Z,983.49
2017-12-14T08:34:12.464Z,983.49
2017-12-14T08:35:12.469Z,983.54
2017-12-14T08:36:12.483Z,983.6
2017-12-14T08:37:12.511Z,983.45
2017-12-14T08:38:12.519Z,983.51
2017-12-14T08:39:12.531Z,983.57
2017-12-14T08:40:12.553Z,983.56
2017-12-14T08:41:12.672Z,983.52
2017-12-14T08:42:12.593Z,983.59
2017-12-14T08:43:12.604Z,983.54
2017-12-14T08:45:12.628Z,983.54
2017-12-14T08:46:12.646Z,983.56
2017-12-14T08:47:12.663Z,983.56
2017-12-14T08:48:12.679Z,983.57
2017-12-14T08:49:12.700Z,983.57
2017-12-14T08:50:12.709Z,983.6
2017-12-14T08:51:12.720Z,983.58
2017-12-14T08:52:12.746Z,983.58
2017-12-14T08:53:12.760Z,983.62
2017-12-14T08:54:12.775Z,983.59
2017-12-14T08:55:12.786Z,983.58
2017-12-14T08:56:12.804Z,983.61
2017-12-14T08:57:12.819Z,983.62
2017-12-14T08:58:12.835Z,983.63
2017-12-14T08:59:12.849Z,983.69
2017-12-14T09:01:12.880Z,983.68
2017-12-14T09:02:12.903Z,983.68
2017-12-14T09:03:12.915Z,983.66
2017-12-14T09:04:12.924Z,983.67
2017-12-14T09:05:12.944Z,983.68
2017-12-14T09:06:12.961Z,983.63
2017-12-14T09:07:12.977Z,983.66
2017-12-14T09:08:13.001Z,983.62
2017-12-14T09:09:13.002Z,983.68
2017-12-14T09:10:13.027Z,983.68
2017-12-14T09:11:13.039Z,983.69
2017-12-14T09:12:13.054Z,983.67
2017-12-14T09:13:13.076Z,983.7
2017-12-14T09:14:13.081Z,983.68
2017-12-14T09:15:13.096Z,983.7
2017-12-14T09:17:13.132Z,983.65
2017-12-14T09:18:13.156Z,983.68
2017-12-14T09:19:13.159Z,983.69
2017-12-14T09:20:13.186Z,983.73
2017-12-14T09:21:13.202Z,983.75
2017-12-14T09:22:13.217Z,983.68
2017-12-14T09:23:13.233Z,983.75
2017-12-14T09:24:13.244Z,983.74
2017-12-14T09:25:13.260Z,983.79
2017-12-14T09:26:13.271Z,983.82
2017-12-14T09:27:13.301Z,983.81
2017-12-14T09:28:13.312Z,983.8
2017-12-14T09:29:13.326Z,983.8
2017-12-14T09:30:13.342Z,983.85
2017-12-14T09:32:13.373Z,983.82
2017-12-14T09:33:13.382Z,983.84
2017-12-14T09:34:13.405Z,983.86
2017-12-14T09:35:13.415Z,983.88
2017-12-14T09:36:13.442Z,983.92
2017-12-14T09:37:13.456Z,983.89
2017-12-14T09:38:13.472Z,983.87
2017-12-14T09:39:13.486Z,983.92
2017-12-14T09:40:13.495Z,983.88
2017-12-14T09:41:13.519Z,983.93
2017-12-14T09:42:13.526Z,983.9
2017-12-14T09:43:13.549Z,983.93
2017-12-14T09:44:13.557Z,983.92
2017-12-14T09:45:13.580Z,983.91
2017-12-14T09:46:13.600Z,983.91
2017-12-14T09:47:13.606Z,983.96
2017-12-14T09:48:13.622Z,983.93
2017-12-14T09:49:13.645Z,983.97
2017-12-14T09:50:13.659Z,984.01
2017-12-14T09:51:13.676Z,984.01
2017-12-14T09:52:13.689Z,984.01
2017-12-14T09:53:13.702Z,983.99
2017-12-14T09:54:13.724Z,983.99
2017-12-14T09:55:13.739Z,984
2017-12-14T09:56:13.749Z,983.96
2017-12-14T09:57:13.772Z,984.03
2017-12-14T09:58:13.793Z,983.98
2017-12-14T09:59:13.812Z,984.03
2017-12-14T10:00:13.825Z,984.02
2017-12-14T10:01:13.835Z,984.06
2017-12-14T10:02:13.855Z,984.09
2017-12-14T10:04:13.888Z,984.05
2017-12-14T10:05:13.904Z,984.15
2017-12-14T10:06:13.919Z,984.13
2017-12-14T10:07:13.927Z,984.15
2017-12-14T10:08:13.942Z,984.2
2017-12-14T10:09:13.968Z,984.2
2017-12-14T10:10:13.983Z,984.23
2017-12-14T10:11:14.000Z,984.22
2017-12-14T10:12:14.010Z,984.26
2017-12-14T10:13:14.020Z,984.25
2017-12-14T10:14:14.045Z,984.29
2017-12-14T10:15:14.055Z,984.23
2017-12-14T10:16:14.080Z,984.25
2017-12-14T10:17:14.104Z,984.25
2017-12-14T10:18:14.103Z,984.31
2017-12-14T10:20:14.135Z,984.36
2017-12-14T10:21:14.154Z,984.36
2017-12-14T10:22:14.178Z,984.36
2017-12-14T10:23:14.192Z,984.46
2017-12-14T10:24:14.204Z,984.36
2017-12-14T10:25:14.224Z,984.43
2017-12-14T10:26:14.231Z,984.41
2017-12-14T10:27:14.254Z,984.46
2017-12-14T10:28:14.264Z,984.48
2017-12-14T10:29:14.287Z,984.44
2017-12-14T10:30:14.302Z,984.51
2017-12-14T10:31:14.321Z,984.51
2017-12-14T10:32:14.334Z,984.57
2017-12-14T10:33:14.350Z,984.51
2017-12-14T10:34:14.374Z,984.53
2017-12-14T10:36:14.395Z,984.56
2017-12-14T10:37:14.421Z,984.59
2017-12-14T10:38:14.428Z,984.6
2017-12-14T10:39:14.450Z,984.63
2017-12-14T10:40:14.467Z,984.58
2017-12-14T10:41:14.486Z,984.62
2017-12-14T10:42:14.496Z,984.62
2017-12-14T10:43:14.512Z,984.65
2017-12-14T10:44:14.536Z,984.64
2017-12-14T10:45:14.543Z,984.64
2017-12-14T10:46:14.563Z,984.66
2017-12-14T10:47:14.586Z,984.68
2017-12-14T10:48:14.592Z,984.7
2017-12-14T10:49:14.609Z,984.66
2017-12-14T10:50:14.631Z,984.74
2017-12-14T10:52:14.662Z,984.66
2017-12-14T10:53:14.679Z,984.66
2017-12-14T10:54:14.695Z,984.69
2017-12-14T10:55:14.711Z,984.66
2017-12-14T10:56:14.734Z,984.71
2017-12-14T10:57:14.757Z,984.68
2017-12-14T10:58:14.762Z,984.71
2017-12-14T10:59:14.778Z,984.73
2017-12-14T11:00:14.796Z,984.77
2017-12-14T11:01:14.808Z,984.79
2017-12-14T11:02:14.833Z,984.72
2017-12-14T11:03:14.844Z,984.78
2017-12-14T11:04:14.860Z,984.78
2017-12-14T11:05:14.875Z,984.8
2017-12-14T11:07:14.909Z,984.84
2017-12-14T11:08:14.924Z,984.9
2017-12-14T11:09:14.950Z,984.89
2017-12-14T11:10:14.954Z,984.91
2017-12-14T11:11:14.972Z,985
2017-12-14T11:12:14.991Z,984.95
2017-12-14T11:13:15.009Z,984.98
2017-12-14T11:14:15.030Z,985.03
2017-12-14T11:15:15.036Z,985.04
2017-12-14T11:16:15.063Z,985.06
2017-12-14T11:17:15.073Z,985.04
2017-12-14T11:18:15.097Z,985.08
2017-12-14T11:19:15.109Z,985.24
2017-12-14T11:20:15.125Z,985.13
2017-12-14T11:21:15.142Z,985.13
2017-12-14T11:22:15.157Z,985.12
2017-12-14T11:23:15.179Z,985.26
2017-12-14T11:24:15.193Z,985.15
2017-12-14T11:25:15.207Z,985.19
2017-12-14T11:26:15.225Z,985.19
2017-12-14T11:27:15.236Z,985.2
2017-12-14T11:28:15.251Z,985.19
2017-12-14T11:29:15.276Z,985.25
2017-12-14T11:30:15.290Z,985.27
2017-12-14T11:31:15.316Z,985.28
2017-12-14T11:32:15.330Z,985.23
2017-12-14T11:33:15.346Z,985.22
2017-12-14T11:34:15.352Z,985.33
2017-12-14T11:35:15.379Z,985.24
2017-12-14T11:36:15.391Z,985.4
2017-12-14T11:37:15.401Z,985.22
2017-12-14T11:39:15.439Z,985.33
2017-12-14T11:40:15.562Z,985.43
2017-12-14T11:41:15.473Z,985.34
2017-12-14T11:42:15.494Z,985.4
2017-12-14T11:43:15.501Z,985.37
2017-12-14T11:44:15.555Z,985.49
2017-12-14T11:45:15.542Z,985.38
2017-12-14T11:46:15.565Z,985.46
2017-12-14T11:47:15.574Z,985.42
2017-12-14T11:48:15.590Z,985.46
2017-12-14T11:49:15.600Z,985.48
2017-12-14T11:50:15.624Z,985.47
2017-12-14T11:51:15.638Z,985.52
2017-12-14T11:52:15.656Z,985.48
2017-12-14T11:53:15.676Z,985.45
2017-12-14T11:55:15.704Z,985.47
2017-12-14T11:56:15.720Z,985.49
2017-12-14T11:57:15.731Z,985.49
2017-12-14T11:58:15.759Z,985.48
2017-12-14T11:59:15.776Z,985.58
2017-12-14T12:00:15.794Z,985.54
2017-12-14T12:01:15.814Z,985.57
2017-12-14T12:02:15.826Z,985.56
2017-12-14T12:03:15.832Z,985.64
2017-12-14T12:04:15.859Z,985.6
2017-12-14T12:05:15.868Z,985.67
2017-12-14T12:06:15.885Z,985.63
2017-12-14T12:07:15.902Z,985.62
2017-12-14T12:08:15.915Z,985.65
2017-12-14T12:09:15.941Z,985.68
2017-12-14T12:11:15.971Z,985.75
2017-12-14T12:12:15.981Z,985.82
2017-12-14T12:13:15.997Z,985.71
2017-12-14T12:14:16.019Z,985.86
2017-12-14T12:15:16.035Z,985.87
2017-12-14T12:16:16.057Z,985.9
2017-12-14T12:17:16.071Z,985.9
2017-12-14T12:18:16.090Z,985.92
2017-12-14T12:19:16.097Z,985.97
2017-12-14T12:20:16.124Z,985.9
2017-12-14T12:21:16.128Z,985.87
2017-12-14T12:22:16.145Z,985.94
2017-12-14T12:23:16.163Z,985.97
2017-12-14T12:24:16.179Z,985.95
2017-12-14T12:25:16.206Z,985.91
2017-12-14T12:27:16.233Z,985.88
2017-12-14T12:28:16.251Z,985.87
2017-12-14T12:29:16.266Z,985.98
2017-12-14T12:30:16.285Z,985.98
2017-12-14T12:31:16.304Z,985.93
2017-12-14T12:32:16.313Z,985.99
2017-12-14T12:33:16.335Z,985.9
2017-12-14T12:34:16.355Z,986.11
2017-12-14T12:35:16.402Z,986.08
2017-12-14T12:36:16.384Z,986.12
2017-12-14T12:37:16.398Z,986.12
2017-12-14T12:38:16.419Z,986.19
2017-12-14T12:39:16.436Z,986.29
2017-12-14T12:40:16.450Z,986.33
2017-12-14T12:42:16.485Z,986.32
2017-12-14T12:43:16.494Z,986.25
2017-12-14T12:44:16.519Z,986.4
2017-12-14T12:45:16.535Z,986.39
2017-12-14T12:46:16.547Z,986.44
2017-12-14T12:47:16.573Z,986.41
2017-12-14T12:48:16.582Z,986.39
2017-12-14T12:49:16.604Z,986.41
2017-12-14T12:50:16.621Z,986.5
2017-12-14T12:51:16.630Z,986.36
2017-12-14T12:52:16.648Z,986.5
2017-12-14T12:53:16.664Z,986.44
2017-12-14T12:54:16.680Z,986.44
2017-12-14T12:55:16.704Z,986.46
2017-12-14T12:56:16.716Z,986.49
2017-12-14T12:57:16.737Z,986.62
2017-12-14T12:58:16.741Z,986.65
2017-12-14T12:59:16.765Z,986.56
2017-12-14T13:00:16.785Z,986.5
2017-12-14T13:01:16.790Z,986.63
2017-12-14T13:02:16.818Z,986.62
2017-12-14T13:03:16.833Z,986.62
2017-12-14T13:04:16.847Z,986.67
2017-12-14T13:05:16.855Z,986.78
2017-12-14T13:06:16.871Z,986.74
2017-12-14T13:07:16.898Z,986.7
2017-12-14T13:08:16.905Z,986.71
2017-12-14T13:09:16.935Z,986.73
2017-12-14T13:10:16.941Z,986.69
2017-12-14T13:11:16.965Z,986.81
2017-12-14T13:12:16.976Z,986.75